PWSweather.com
Personal Weather Stations
Station Observations
IBAVARIA50
Munich, PlieningDE 85652

MunichPlieningDE 85652

Lat: 48.19916153, Lon: 11.79794312

Elevation: 504

Station Type: Davis Vantage Pro2

http://wetterstation-pliening.info

Latest ConditionsUpdated 4:00:06 PM GMT+01:01 Monday, Oct 23, 2017
Currently Today's Max Today's Min Today's Average
Temperature 47.8°F8.8°C 50.2°F10.1°C 44.4°F6.9°C 46.3°F7.9°C
Dew Point 42.5°F5.8°C 42.7°F5.9°C 40.6°F4.8°C 41.7°F5.4°C
Winds 4.0 mph WSW6.4 kmh WSW 17.0 mph WSW27.4 kmh WSW - 9.4 mph 15.1 kmh
Wind Gusts 15.0 mph24.1 kmh 23.0 mph37.0 kmh - -
Humidity 82% 91% 73% 84%
Pressure 30.15 in1021.0 mb 30.15 in1021.0 mb 30.01 in1016.3 mb -
Precipitation - 0.01 in0.3 mm - -
Hour Temp Dew Point Humidity Winds Wind Gusts Pressure Precip Precip Rate Daily Precip Total
04:00 PM 47.8°F8.8°C 42.5°F5.8°C 82% 4.0 mph WSW6.4 kmh WSW 15.0 mph24.1 kmh 30.15 in1021.0 mb 0.00 in0.0 mm 0.00 in0.0 mm 0.01 in0.3 mm
03:55 PM 47.8°F8.8°C 42.5°F5.8°C 82% 14.0 mph WSW22.5 kmh WSW 15.0 mph24.1 kmh 30.14 in1020.7 mb 0.00 in0.0 mm 0.00 in0.0 mm 0.01 in0.3 mm
03:50 PM 47.8°F8.8°C 42.5°F5.8°C 82% 15.0 mph WSW24.1 kmh WSW 15.0 mph24.1 kmh 30.14 in1020.7 mb 0.00 in0.0 mm 0.00 in0.0 mm 0.01 in0.3 mm
03:45 PM 47.9°F8.8°C 42.6°F5.9°C 82% 9.0 mph SW14.5 kmh SW 11.0 mph17.7 kmh 30.14 in1020.7 mb 0.00 in0.0 mm 0.00 in0.0 mm 0.01 in0.3 mm
03:40 PM 48.0°F8.9°C 42.7°F5.9°C 82% 3.0 mph SW4.8 kmh SW 12.0 mph19.3 kmh 30.14 in1020.7 mb 0.00 in0.0 mm 0.00 in0.0 mm 0.01 in0.3 mm
03:35 PM 48.1°F8.9°C 42.5°F5.8°C 81% 11.0 mph WSW17.7 kmh WSW 14.0 mph22.5 kmh 30.14 in1020.7 mb 0.00 in0.0 mm 0.00 in0.0 mm 0.01 in0.3 mm
03:30 PM 48.3°F9.1°C 42.0°F5.6°C 79% 10.0 mph SW16.1 kmh SW 13.0 mph20.9 kmh 30.14 in1020.7 mb 0.00 in0.0 mm 0.00 in0.0 mm 0.01 in0.3 mm
03:25 PM 48.4°F9.1°C 42.1°F5.6°C 79% 5.0 mph SW8.0 kmh SW 14.0 mph22.5 kmh 30.14 in1020.7 mb 0.00 in0.0 mm 0.00 in0.0 mm 0.01 in0.3 mm
03:20 PM 48.5°F9.2°C 42.2°F5.7°C 79% 9.0 mph SW14.5 kmh SW 14.0 mph22.5 kmh 30.14 in1020.7 mb 0.00 in0.0 mm 0.00 in0.0 mm 0.01 in0.3 mm
03:15 PM 48.6°F9.2°C 42.0°F5.6°C 78% 5.0 mph SW8.0 kmh SW 14.0 mph22.5 kmh 30.13 in1020.3 mb 0.00 in0.0 mm 0.00 in0.0 mm 0.01 in0.3 mm
03:10 PM 48.7°F9.3°C 42.1°F5.6°C 78% 10.0 mph WSW16.1 kmh WSW 16.0 mph25.7 kmh 30.13 in1020.3 mb 0.00 in0.0 mm 0.00 in0.0 mm 0.01 in0.3 mm
03:05 PM 48.8°F9.3°C 41.9°F5.5°C 77% 10.0 mph WSW16.1 kmh WSW 19.0 mph30.6 kmh 30.13 in1020.3 mb 0.00 in0.0 mm 0.00 in0.0 mm 0.01 in0.3 mm
03:00 PM 48.9°F9.4°C 42.0°F5.6°C 77% 11.0 mph WSW17.7 kmh WSW 16.0 mph25.7 kmh 30.13 in1020.3 mb 0.00 in0.0 mm 0.00 in0.0 mm 0.01 in0.3 mm
02:55 PM 49.0°F9.4°C 42.1°F5.6°C 77% 9.0 mph W14.5 kmh W 17.0 mph27.4 kmh 30.13 in1020.3 mb 0.00 in0.0 mm 0.00 in0.0 mm 0.01 in0.3 mm
02:50 PM 49.2°F9.6°C 41.6°F5.3°C 75% 9.0 mph WNW14.5 kmh WNW 17.0 mph27.4 kmh 30.13 in1020.3 mb 0.00 in0.0 mm 0.00 in0.0 mm 0.01 in0.3 mm
02:45 PM 49.4°F9.7°C 42.1°F5.6°C 76% 7.0 mph WSW11.3 kmh WSW 16.0 mph25.7 kmh 30.13 in1020.3 mb 0.00 in0.0 mm 0.00 in0.0 mm 0.01 in0.3 mm
02:40 PM 49.5°F9.7°C 42.2°F5.7°C 76% 5.0 mph SSW8.0 kmh SSW 17.0 mph27.4 kmh 30.12 in1020.0 mb 0.00 in0.0 mm 0.00 in0.0 mm 0.01 in0.3 mm
02:35 PM 49.6°F9.8°C 42.0°F5.6°C 75% 7.0 mph W11.3 kmh W 17.0 mph27.4 kmh 30.12 in1020.0 mb 0.00 in0.0 mm 0.00 in0.0 mm 0.01 in0.3 mm
02:30 PM 49.6°F9.8°C 42.0°F5.6°C 75% 6.0 mph W9.7 kmh W 18.0 mph29.0 kmh 30.13 in1020.3 mb 0.00 in0.0 mm 0.00 in0.0 mm 0.01 in0.3 mm
02:25 PM 49.6°F9.8°C 42.0°F5.6°C 75% 10.0 mph W16.1 kmh W 15.0 mph24.1 kmh 30.12 in1020.0 mb 0.00 in0.0 mm 0.00 in0.0 mm 0.01 in0.3 mm
02:20 PM 49.7°F9.8°C 42.1°F5.6°C 75% 6.0 mph W9.7 kmh W 16.0 mph25.7 kmh 30.12 in1020.0 mb 0.00 in0.0 mm 0.00 in0.0 mm 0.01 in0.3 mm
02:15 PM 49.8°F9.9°C 41.8°F5.4°C 74% 8.0 mph W12.9 kmh W 17.0 mph27.4 kmh 30.12 in1020.0 mb 0.00 in0.0 mm 0.00 in0.0 mm 0.01 in0.3 mm
02:10 PM 49.8°F9.9°C 42.1°F5.6°C 75% 6.0 mph W9.7 kmh W 17.0 mph27.4 kmh 30.12 in1020.0 mb 0.00 in0.0 mm 0.00 in0.0 mm 0.01 in0.3 mm
02:05 PM 49.9°F9.9°C 42.2°F5.7°C 75% 12.0 mph WSW19.3 kmh WSW 19.0 mph30.6 kmh 30.12 in1020.0 mb 0.00 in0.0 mm 0.00 in0.0 mm 0.01 in0.3 mm
02:00 PM 50.0°F10.0°C 42.3°F5.7°C 75% 11.0 mph W17.7 kmh W 19.0 mph30.6 kmh 30.12 in1020.0 mb 0.00 in0.0 mm 0.00 in0.0 mm 0.01 in0.3 mm
01:55 PM 50.1°F10.1°C 42.1°F5.6°C 74% 12.0 mph WSW19.3 kmh WSW 20.0 mph32.2 kmh 30.12 in1020.0 mb 0.00 in0.0 mm 0.00 in0.0 mm 0.01 in0.3 mm
01:50 PM 50.2°F10.1°C 42.2°F5.7°C 74% 10.0 mph WNW16.1 kmh WNW 16.0 mph25.7 kmh 30.12 in1020.0 mb 0.00 in0.0 mm 0.00 in0.0 mm 0.01 in0.3 mm
01:45 PM 50.1°F10.1°C 42.1°F5.6°C 74% 12.0 mph WSW19.3 kmh WSW 17.0 mph27.4 kmh 30.12 in1020.0 mb 0.00 in0.0 mm 0.00 in0.0 mm 0.01 in0.3 mm
01:40 PM 50.0°F10.0°C 41.6°F5.3°C 73% 17.0 mph WSW27.4 kmh WSW 17.0 mph27.4 kmh 30.11 in1019.6 mb 0.00 in0.0 mm 0.00 in0.0 mm 0.01 in0.3 mm
01:35 PM 49.8°F9.9°C 41.8°F5.4°C 74% 12.0 mph WSW19.3 kmh WSW 19.0 mph30.6 kmh 30.11 in1019.6 mb 0.00 in0.0 mm 0.00 in0.0 mm 0.01 in0.3 mm
01:30 PM 49.5°F9.7°C 41.9°F5.5°C 75% 6.0 mph SW9.7 kmh SW 16.0 mph25.7 kmh 30.12 in1020.0 mb 0.00 in0.0 mm 0.00 in0.0 mm 0.01 in0.3 mm
01:25 PM 49.3°F9.6°C 41.3°F5.2°C 74% 13.0 mph WSW20.9 kmh WSW 16.0 mph25.7 kmh 30.12 in1020.0 mb 0.00 in0.0 mm 0.00 in0.0 mm 0.01 in0.3 mm
01:20 PM 49.3°F9.6°C 41.7°F5.4°C 75% 11.0 mph SW17.7 kmh SW 20.0 mph32.2 kmh 30.12 in1020.0 mb 0.00 in0.0 mm 0.00 in0.0 mm 0.01 in0.3 mm
01:15 PM 49.3°F9.6°C 42.0°F5.6°C 76% 15.0 mph WSW24.1 kmh WSW 16.0 mph25.7 kmh 30.12 in1020.0 mb 0.00 in0.0 mm 0.00 in0.0 mm 0.01 in0.3 mm
01:10 PM 49.3°F9.6°C 41.7°F5.4°C 75% 10.0 mph SW16.1 kmh SW 16.0 mph25.7 kmh 30.12 in1020.0 mb 0.00 in0.0 mm 0.00 in0.0 mm 0.01 in0.3 mm
01:05 PM 49.2°F9.6°C 41.9°F5.5°C 76% 11.0 mph WSW17.7 kmh WSW 16.0 mph25.7 kmh 30.12 in1020.0 mb 0.00 in0.0 mm 0.00 in0.0 mm 0.01 in0.3 mm
01:00 PM 49.2°F9.6°C 41.6°F5.3°C 75% 10.0 mph W16.1 kmh W 16.0 mph25.7 kmh 30.12 in1020.0 mb 0.00 in0.0 mm 0.00 in0.0 mm 0.01 in0.3 mm
12:55 PM 49.1°F9.5°C 41.5°F5.3°C 75% 9.0 mph W14.5 kmh W 18.0 mph29.0 kmh 30.12 in1020.0 mb 0.00 in0.0 mm 0.00 in0.0 mm 0.01 in0.3 mm
12:50 PM 49.2°F9.6°C 41.6°F5.3°C 75% 11.0 mph WSW17.7 kmh WSW 19.0 mph30.6 kmh 30.12 in1020.0 mb 0.00 in0.0 mm 0.00 in0.0 mm 0.01 in0.3 mm
12:45 PM 49.6°F9.8°C 41.6°F5.3°C 74% 14.0 mph W22.5 kmh W 17.0 mph27.4 kmh 30.11 in1019.6 mb 0.00 in0.0 mm 0.00 in0.0 mm 0.01 in0.3 mm
12:35 PM 49.3°F9.6°C 41.7°F5.4°C 75% 7.0 mph W11.3 kmh W 15.0 mph24.1 kmh 30.12 in1020.0 mb 0.00 in0.0 mm 0.00 in0.0 mm 0.01 in0.3 mm
12:30 PM 48.9°F9.4°C 41.6°F5.3°C 76% 6.0 mph WSW9.7 kmh WSW 15.0 mph24.1 kmh 30.12 in1020.0 mb 0.00 in0.0 mm 0.00 in0.0 mm 0.01 in0.3 mm
12:25 PM 48.7°F9.3°C 41.4°F5.2°C 76% 6.0 mph W9.7 kmh W 17.0 mph27.4 kmh 30.12 in1020.0 mb 0.00 in0.0 mm 0.00 in0.0 mm 0.01 in0.3 mm
12:20 PM 48.7°F9.3°C 41.8°F5.4°C 77% 11.0 mph WSW17.7 kmh WSW 15.0 mph24.1 kmh 30.12 in1020.0 mb 0.00 in0.0 mm 0.00 in0.0 mm 0.01 in0.3 mm
12:15 PM 48.9°F9.4°C 42.0°F5.6°C 77% 12.0 mph W19.3 kmh W 16.0 mph25.7 kmh 30.12 in1020.0 mb 0.00 in0.0 mm 0.00 in0.0 mm 0.01 in0.3 mm
12:10 PM 48.7°F9.3°C 42.1°F5.6°C 78% 9.0 mph W14.5 kmh W 13.0 mph20.9 kmh 30.12 in1020.0 mb 0.00 in0.0 mm 0.00 in0.0 mm 0.01 in0.3 mm
12:05 PM 48.7°F9.3°C 41.8°F5.4°C 77% 11.0 mph WSW17.7 kmh WSW 15.0 mph24.1 kmh 30.12 in1020.0 mb 0.00 in0.0 mm 0.00 in0.0 mm 0.01 in0.3 mm
12:00 PM 48.7°F9.3°C 41.8°F5.4°C 77% 12.0 mph WSW19.3 kmh WSW 15.0 mph24.1 kmh 30.12 in1020.0 mb 0.00 in0.0 mm 0.00 in0.0 mm 0.01 in0.3 mm
11:55 AM 48.8°F9.3°C 42.2°F5.7°C 78% 11.0 mph WSW17.7 kmh WSW 15.0 mph24.1 kmh 30.12 in1020.0 mb 0.00 in0.0 mm 0.00 in0.0 mm 0.01 in0.3 mm
11:50 AM 48.7°F9.3°C 41.8°F5.4°C 77% 16.0 mph WSW25.7 kmh WSW 17.0 mph27.4 kmh 30.11 in1019.6 mb 0.00 in0.0 mm 0.00 in0.0 mm 0.01 in0.3 mm
11:45 AM 48.5°F9.2°C 41.6°F5.3°C 77% 12.0 mph SW19.3 kmh SW 19.0 mph30.6 kmh 30.11 in1019.6 mb 0.00 in0.0 mm 0.00 in0.0 mm 0.01 in0.3 mm
11:40 AM 48.4°F9.1°C 41.5°F5.3°C 77% 13.0 mph WSW20.9 kmh WSW 21.0 mph33.8 kmh 30.12 in1020.0 mb 0.00 in0.0 mm 0.00 in0.0 mm 0.01 in0.3 mm
11:35 AM 48.2°F9.0°C 41.3°F5.2°C 77% 13.0 mph WSW20.9 kmh WSW 17.0 mph27.4 kmh 30.12 in1020.0 mb 0.00 in0.0 mm 0.00 in0.0 mm 0.01 in0.3 mm
11:30 AM 48.1°F8.9°C 41.8°F5.4°C 79% 15.0 mph WSW24.1 kmh WSW 16.0 mph25.7 kmh 30.12 in1020.0 mb 0.00 in0.0 mm 0.00 in0.0 mm 0.01 in0.3 mm
11:25 AM 48.1°F8.9°C 41.5°F5.3°C 78% 15.0 mph WSW24.1 kmh WSW 23.0 mph37.0 kmh 30.12 in1020.0 mb 0.00 in0.0 mm 0.00 in0.0 mm 0.01 in0.3 mm
11:20 AM 48.0°F8.9°C 41.8°F5.4°C 79% 11.0 mph WSW17.7 kmh WSW 17.0 mph27.4 kmh 30.12 in1020.0 mb 0.00 in0.0 mm 0.00 in0.0 mm 0.01 in0.3 mm
11:15 AM 47.9°F8.8°C 41.7°F5.4°C 79% 9.0 mph WSW14.5 kmh WSW 18.0 mph29.0 kmh 30.12 in1020.0 mb 0.00 in0.0 mm 0.00 in0.0 mm 0.01 in0.3 mm
11:10 AM 47.9°F8.8°C 41.7°F5.4°C 79% 7.0 mph WSW11.3 kmh WSW 18.0 mph29.0 kmh 30.12 in1020.0 mb 0.00 in0.0 mm 0.00 in0.0 mm 0.01 in0.3 mm
11:05 AM 47.9°F8.8°C 41.3°F5.2°C 78% 13.0 mph WNW20.9 kmh WNW 18.0 mph29.0 kmh 30.12 in1020.0 mb 0.00 in0.0 mm 0.00 in0.0 mm 0.01 in0.3 mm
11:00 AM 47.9°F8.8°C 41.7°F5.4°C 79% 11.0 mph WSW17.7 kmh WSW 19.0 mph30.6 kmh 30.12 in1020.0 mb 0.00 in0.0 mm 0.00 in0.0 mm 0.01 in0.3 mm
10:55 AM 47.7°F8.7°C 41.8°F5.4°C 80% 8.0 mph W12.9 kmh W 18.0 mph29.0 kmh 30.12 in1020.0 mb 0.00 in0.0 mm 0.00 in0.0 mm 0.01 in0.3 mm
10:50 AM 47.6°F8.7°C 42.0°F5.6°C 81% 14.0 mph W22.5 kmh W 16.0 mph25.7 kmh 30.12 in1020.0 mb 0.00 in0.0 mm 0.00 in0.0 mm 0.01 in0.3 mm
10:45 AM 47.4°F8.6°C 41.8°F5.4°C 81% 9.0 mph SW14.5 kmh SW 19.0 mph30.6 kmh 30.11 in1019.6 mb 0.00 in0.0 mm 0.00 in0.0 mm 0.01 in0.3 mm
10:40 AM 47.4°F8.6°C 42.1°F5.6°C 82% 10.0 mph WSW16.1 kmh WSW 15.0 mph24.1 kmh 30.11 in1019.6 mb 0.00 in0.0 mm 0.00 in0.0 mm 0.01 in0.3 mm
10:35 AM 47.2°F8.4°C 41.6°F5.3°C 81% 12.0 mph SW19.3 kmh SW 18.0 mph29.0 kmh 30.11 in1019.6 mb 0.00 in0.0 mm 0.00 in0.0 mm 0.01 in0.3 mm
10:30 AM 47.1°F8.4°C 42.2°F5.7°C 83% 11.0 mph SW17.7 kmh SW 16.0 mph25.7 kmh 30.11 in1019.6 mb 0.00 in0.0 mm 0.00 in0.0 mm 0.01 in0.3 mm
10:25 AM 47.0°F8.3°C 42.4°F5.8°C 84% 10.0 mph WSW16.1 kmh WSW 14.0 mph22.5 kmh 30.11 in1019.6 mb 0.00 in0.0 mm 0.00 in0.0 mm 0.01 in0.3 mm
10:20 AM 46.9°F8.3°C 42.3°F5.7°C 84% 10.0 mph W16.1 kmh W 15.0 mph24.1 kmh 30.11 in1019.6 mb 0.00 in0.0 mm 0.00 in0.0 mm 0.01 in0.3 mm
10:15 AM 46.6°F8.1°C 42.0°F5.6°C 84% 4.0 mph WSW6.4 kmh WSW 15.0 mph24.1 kmh 30.11 in1019.6 mb 0.00 in0.0 mm 0.00 in0.0 mm 0.01 in0.3 mm
10:10 AM 46.4°F8.0°C 42.1°F5.6°C 85% 13.0 mph WSW20.9 kmh WSW 16.0 mph25.7 kmh 30.11 in1019.6 mb 0.00 in0.0 mm 0.00 in0.0 mm 0.01 in0.3 mm
10:05 AM 46.2°F7.9°C 41.9°F5.5°C 85% 9.0 mph WSW14.5 kmh WSW 19.0 mph30.6 kmh 30.11 in1019.6 mb 0.00 in0.0 mm 0.00 in0.0 mm 0.01 in0.3 mm
10:00 AM 46.1°F7.8°C 41.8°F5.4°C 85% 17.0 mph WSW27.4 kmh WSW 15.0 mph24.1 kmh 30.11 in1019.6 mb 0.00 in0.0 mm 0.00 in0.0 mm 0.01 in0.3 mm
09:55 AM 45.9°F7.7°C 41.3°F5.2°C 84% 9.0 mph SW14.5 kmh SW 18.0 mph29.0 kmh 30.11 in1019.6 mb 0.00 in0.0 mm 0.00 in0.0 mm 0.01 in0.3 mm
09:50 AM 45.8°F7.7°C 41.2°F5.1°C 84% 11.0 mph W17.7 kmh W 17.0 mph27.4 kmh 30.11 in1019.6 mb 0.00 in0.0 mm 0.00 in0.0 mm 0.01 in0.3 mm
09:45 AM 45.7°F7.6°C 41.4°F5.2°C 85% 10.0 mph WSW16.1 kmh WSW 16.0 mph25.7 kmh 30.11 in1019.6 mb 0.00 in0.0 mm 0.00 in0.0 mm 0.01 in0.3 mm
09:40 AM 45.6°F7.6°C 41.3°F5.2°C 85% 6.0 mph SW9.7 kmh SW 15.0 mph24.1 kmh 30.11 in1019.6 mb 0.00 in0.0 mm 0.00 in0.0 mm 0.01 in0.3 mm
09:35 AM 45.7°F7.6°C 41.1°F5.1°C 84% 13.0 mph WSW20.9 kmh WSW 15.0 mph24.1 kmh 30.11 in1019.6 mb 0.00 in0.0 mm 0.00 in0.0 mm 0.01 in0.3 mm
09:30 AM 45.6°F7.6°C 41.3°F5.2°C 85% 10.0 mph WSW16.1 kmh WSW 14.0 mph22.5 kmh 30.11 in1019.6 mb 0.00 in0.0 mm 0.00 in0.0 mm 0.01 in0.3 mm
09:25 AM 45.7°F7.6°C 41.4°F5.2°C 85% 5.0 mph WSW8.0 kmh WSW 16.0 mph25.7 kmh 30.11 in1019.6 mb 0.01 in0.3 mm 0.00 in0.0 mm 0.01 in0.3 mm
09:20 AM 45.6°F7.6°C 41.0°F5.0°C 84% 6.0 mph WSW9.7 kmh WSW 16.0 mph25.7 kmh 30.10 in1019.3 mb 0.01 in0.3 mm 0.00 in0.0 mm 0.01 in0.3 mm
09:15 AM 45.6°F7.6°C 41.0°F5.0°C 84% 10.0 mph SW16.1 kmh SW 16.0 mph25.7 kmh 30.11 in1019.6 mb 0.01 in0.3 mm 0.00 in0.0 mm 0.01 in0.3 mm
09:10 AM 45.6°F7.6°C 41.3°F5.2°C 85% 12.0 mph W19.3 kmh W 14.0 mph22.5 kmh 30.10 in1019.3 mb 0.01 in0.3 mm 0.00 in0.0 mm 0.01 in0.3 mm
09:05 AM 45.6°F7.6°C 41.0°F5.0°C 84% 11.0 mph WSW17.7 kmh WSW 19.0 mph30.6 kmh 30.10 in1019.3 mb 0.01 in0.3 mm 0.00 in0.0 mm 0.01 in0.3 mm
09:00 AM 45.6°F7.6°C 41.0°F5.0°C 84% 12.0 mph WSW19.3 kmh WSW 17.0 mph27.4 kmh 30.10 in1019.3 mb 0.01 in0.3 mm 0.00 in0.0 mm 0.01 in0.3 mm
08:55 AM 45.6°F7.6°C 41.0°F5.0°C 84% 13.0 mph WSW20.9 kmh WSW 19.0 mph30.6 kmh 30.10 in1019.3 mb 0.01 in0.3 mm 0.00 in0.0 mm 0.01 in0.3 mm
08:50 AM 45.6°F7.6°C 41.0°F5.0°C 84% 15.0 mph W24.1 kmh W 16.0 mph25.7 kmh 30.10 in1019.3 mb 0.01 in0.3 mm 0.00 in0.0 mm 0.01 in0.3 mm
08:45 AM 45.6°F7.6°C 41.3°F5.2°C 85% 10.0 mph WNW16.1 kmh WNW 16.0 mph25.7 kmh 30.10 in1019.3 mb 0.01 in0.3 mm 0.00 in0.0 mm 0.01 in0.3 mm
08:40 AM 45.5°F7.5°C 42.4°F5.8°C 89% 6.0 mph SW9.7 kmh SW 15.0 mph24.1 kmh 30.10 in1019.3 mb 0.01 in0.3 mm 0.00 in0.0 mm 0.01 in0.3 mm
08:35 AM 45.5°F7.5°C 41.2°F5.1°C 85% 11.0 mph SW17.7 kmh SW 16.0 mph25.7 kmh 30.10 in1019.3 mb 0.01 in0.3 mm 0.00 in0.0 mm 0.01 in0.3 mm
08:30 AM 45.4°F7.4°C 41.1°F5.1°C 85% 6.0 mph WSW9.7 kmh WSW 16.0 mph25.7 kmh 30.10 in1019.3 mb 0.01 in0.3 mm 0.12 in3.0 mm 0.01 in0.3 mm
08:25 AM 45.4°F7.4°C 41.1°F5.1°C 85% 11.0 mph SW17.7 kmh SW 15.0 mph24.1 kmh 30.09 in1019.0 mb 0.00 in0.0 mm 0.00 in0.0 mm 0.00 in0.0 mm
08:20 AM 45.3°F7.4°C 41.0°F5.0°C 85% 9.0 mph W14.5 kmh W 16.0 mph25.7 kmh 30.09 in1019.0 mb 0.00 in0.0 mm 0.00 in0.0 mm 0.00 in0.0 mm
08:15 AM 45.3°F7.4°C 41.0°F5.0°C 85% 13.0 mph W20.9 kmh W 16.0 mph25.7 kmh 30.09 in1019.0 mb 0.00 in0.0 mm 0.00 in0.0 mm 0.00 in0.0 mm
08:10 AM 45.2°F7.3°C 40.9°F4.9°C 85% 6.0 mph WNW9.7 kmh WNW 16.0 mph25.7 kmh 30.09 in1019.0 mb 0.00 in0.0 mm 0.00 in0.0 mm 0.00 in0.0 mm
08:05 AM 45.2°F7.3°C 40.9°F4.9°C 85% 13.0 mph W20.9 kmh W 16.0 mph25.7 kmh 30.09 in1019.0 mb 0.00 in0.0 mm 0.00 in0.0 mm 0.00 in0.0 mm
08:00 AM 45.1°F7.3°C 40.8°F4.9°C 85% 8.0 mph WSW12.9 kmh WSW 13.0 mph20.9 kmh 30.09 in1019.0 mb 0.00 in0.0 mm 0.00 in0.0 mm 0.00 in0.0 mm
07:55 AM 45.1°F7.3°C 40.8°F4.9°C 85% 10.0 mph WSW16.1 kmh WSW 15.0 mph24.1 kmh 30.10 in1019.3 mb 0.00 in0.0 mm 0.00 in0.0 mm 0.00 in0.0 mm
07:50 AM 45.0°F7.2°C 40.7°F4.8°C 85% 9.0 mph W14.5 kmh W 14.0 mph22.5 kmh 30.09 in1019.0 mb 0.00 in0.0 mm 0.00 in0.0 mm 0.00 in0.0 mm
07:45 AM 45.0°F7.2°C 41.0°F5.0°C 86% 12.0 mph SW19.3 kmh SW 14.0 mph22.5 kmh 30.10 in1019.3 mb 0.00 in0.0 mm 0.00 in0.0 mm 0.00 in0.0 mm
07:40 AM 45.0°F7.2°C 41.0°F5.0°C 86% 9.0 mph WSW14.5 kmh WSW 13.0 mph20.9 kmh 30.09 in1019.0 mb 0.00 in0.0 mm 0.00 in0.0 mm 0.00 in0.0 mm
07:35 AM 44.9°F7.2°C 40.9°F4.9°C 86% 6.0 mph WSW9.7 kmh WSW 14.0 mph22.5 kmh 30.09 in1019.0 mb 0.00 in0.0 mm 0.00 in0.0 mm 0.00 in0.0 mm
07:30 AM 44.9°F7.2°C 40.9°F4.9°C 86% 9.0 mph WSW14.5 kmh WSW 13.0 mph20.9 kmh 30.09 in1019.0 mb 0.00 in0.0 mm 0.00 in0.0 mm 0.00 in0.0 mm
07:25 AM 44.9°F7.2°C 40.9°F4.9°C 86% 10.0 mph W16.1 kmh W 16.0 mph25.7 kmh 30.09 in1019.0 mb 0.00 in0.0 mm 0.00 in0.0 mm 0.00 in0.0 mm
07:20 AM 44.9°F7.2°C 40.6°F4.8°C 85% 11.0 mph W17.7 kmh W 19.0 mph30.6 kmh 30.09 in1019.0 mb 0.00 in0.0 mm 0.00 in0.0 mm 0.00 in0.0 mm
07:15 AM 44.8°F7.1°C 40.8°F4.9°C 86% 12.0 mph SW19.3 kmh SW 14.0 mph22.5 kmh 30.09 in1019.0 mb 0.00 in0.0 mm 0.00 in0.0 mm 0.00 in0.0 mm
07:10 AM 44.9°F7.2°C 40.9°F4.9°C 86% 12.0 mph WSW19.3 kmh WSW 14.0 mph22.5 kmh 30.09 in1019.0 mb 0.00 in0.0 mm 0.00 in0.0 mm 0.00 in0.0 mm
07:05 AM 44.9°F7.2°C 40.9°F4.9°C 86% 13.0 mph WSW20.9 kmh WSW 15.0 mph24.1 kmh 30.09 in1019.0 mb 0.00 in0.0 mm 0.00 in0.0 mm 0.00 in0.0 mm
07:00 AM 44.9°F7.2°C 40.9°F4.9°C 86% 13.0 mph W20.9 kmh W 20.0 mph32.2 kmh 30.08 in1018.6 mb 0.00 in0.0 mm 0.00 in0.0 mm 0.00 in0.0 mm
06:55 AM 44.8°F7.1°C 41.1°F5.1°C 87% 10.0 mph WSW16.1 kmh WSW 16.0 mph25.7 kmh 30.08 in1018.6 mb 0.00 in0.0 mm 0.00 in0.0 mm 0.00 in0.0 mm
06:50 AM 44.8°F7.1°C 41.1°F5.1°C 87% 12.0 mph WSW19.3 kmh WSW 15.0 mph24.1 kmh 30.08 in1018.6 mb 0.00 in0.0 mm 0.00 in0.0 mm 0.00 in0.0 mm
06:45 AM 44.8°F7.1°C 41.1°F5.1°C 87% 11.0 mph SW17.7 kmh SW 15.0 mph24.1 kmh 30.08 in1018.6 mb 0.00 in0.0 mm 0.00 in0.0 mm 0.00 in0.0 mm
06:40 AM 44.8°F7.1°C 41.1°F5.1°C 87% 12.0 mph WSW19.3 kmh WSW 15.0 mph24.1 kmh 30.07 in1018.3 mb 0.00 in0.0 mm 0.00 in0.0 mm 0.00 in0.0 mm
06:35 AM 44.7°F7.1°C 41.0°F5.0°C 87% 9.0 mph SW14.5 kmh SW 12.0 mph19.3 kmh 30.08 in1018.6 mb 0.00 in0.0 mm 0.00 in0.0 mm 0.00 in0.0 mm
06:30 AM 44.7°F7.1°C 41.0°F5.0°C 87% 7.0 mph WSW11.3 kmh WSW 13.0 mph20.9 kmh 30.07 in1018.3 mb 0.00 in0.0 mm 0.00 in0.0 mm 0.00 in0.0 mm
06:25 AM 44.8°F7.1°C 41.1°F5.1°C 87% 5.0 mph WSW8.0 kmh WSW 14.0 mph22.5 kmh 30.07 in1018.3 mb 0.00 in0.0 mm 0.00 in0.0 mm 0.00 in0.0 mm
06:20 AM 44.8°F7.1°C 41.1°F5.1°C 87% 9.0 mph WSW14.5 kmh WSW 16.0 mph25.7 kmh 30.07 in1018.3 mb 0.00 in0.0 mm 0.00 in0.0 mm 0.00 in0.0 mm
06:15 AM 44.8°F7.1°C 41.1°F5.1°C 87% 13.0 mph WSW20.9 kmh WSW 15.0 mph24.1 kmh 30.07 in1018.3 mb 0.00 in0.0 mm 0.00 in0.0 mm 0.00 in0.0 mm
06:10 AM 44.8°F7.1°C 41.4°F5.2°C 88% 11.0 mph SW17.7 kmh SW 15.0 mph24.1 kmh 30.07 in1018.3 mb 0.00 in0.0 mm 0.00 in0.0 mm 0.00 in0.0 mm
06:05 AM 44.8°F7.1°C 41.4°F5.2°C 88% 10.0 mph WSW16.1 kmh WSW 15.0 mph24.1 kmh 30.07 in1018.3 mb 0.00 in0.0 mm 0.00 in0.0 mm 0.00 in0.0 mm
06:00 AM 44.7°F7.1°C 41.3°F5.2°C 88% 5.0 mph WSW8.0 kmh WSW 12.0 mph19.3 kmh 30.06 in1017.9 mb 0.00 in0.0 mm 0.00 in0.0 mm 0.00 in0.0 mm
05:55 AM 44.8°F7.1°C 41.4°F5.2°C 88% 10.0 mph SW16.1 kmh SW 16.0 mph25.7 kmh 30.07 in1018.3 mb 0.00 in0.0 mm 0.00 in0.0 mm 0.00 in0.0 mm
05:50 AM 44.8°F7.1°C 41.4°F5.2°C 88% 9.0 mph WSW14.5 kmh WSW 12.0 mph19.3 kmh 30.07 in1018.3 mb 0.00 in0.0 mm 0.00 in0.0 mm 0.00 in0.0 mm
05:45 AM 44.9°F7.2°C 41.5°F5.3°C 88% 9.0 mph WSW14.5 kmh WSW 15.0 mph24.1 kmh 30.07 in1018.3 mb 0.00 in0.0 mm 0.00 in0.0 mm 0.00 in0.0 mm
05:40 AM 44.8°F7.1°C 41.4°F5.2°C 88% 10.0 mph W16.1 kmh W 15.0 mph24.1 kmh 30.07 in1018.3 mb 0.00 in0.0 mm 0.00 in0.0 mm 0.00 in0.0 mm
05:35 AM 44.7°F7.1°C 41.6°F5.3°C 89% 10.0 mph WSW16.1 kmh WSW 11.0 mph17.7 kmh 30.07 in1018.3 mb 0.00 in0.0 mm 0.00 in0.0 mm 0.00 in0.0 mm
05:30 AM 44.7°F7.1°C 41.6°F5.3°C 89% 9.0 mph WSW14.5 kmh WSW 13.0 mph20.9 kmh 30.07 in1018.3 mb 0.00 in0.0 mm 0.00 in0.0 mm 0.00 in0.0 mm
05:25 AM 44.6°F7.0°C 41.5°F5.3°C 89% 9.0 mph WSW14.5 kmh WSW 12.0 mph19.3 kmh 30.07 in1018.3 mb 0.00 in0.0 mm 0.00 in0.0 mm 0.00 in0.0 mm
05:20 AM 44.5°F6.9°C 41.7°F5.4°C 90% 6.0 mph WSW9.7 kmh WSW 11.0 mph17.7 kmh 30.07 in1018.3 mb 0.00 in0.0 mm 0.00 in0.0 mm 0.00 in0.0 mm
05:15 AM 44.5°F6.9°C 41.7°F5.4°C 90% 3.0 mph W4.8 kmh W 10.0 mph16.1 kmh 30.07 in1018.3 mb 0.00 in0.0 mm 0.00 in0.0 mm 0.00 in0.0 mm
05:10 AM 44.6°F7.0°C 41.8°F5.4°C 90% 7.0 mph SW11.3 kmh SW 10.0 mph16.1 kmh 30.07 in1018.3 mb 0.00 in0.0 mm 0.00 in0.0 mm 0.00 in0.0 mm
05:05 AM 44.6°F7.0°C 41.8°F5.4°C 90% 5.0 mph WSW8.0 kmh WSW 10.0 mph16.1 kmh 30.07 in1018.3 mb 0.00 in0.0 mm 0.00 in0.0 mm 0.00 in0.0 mm
05:00 AM 44.7°F7.1°C 41.9°F5.5°C 90% 5.0 mph WSW8.0 kmh WSW 11.0 mph17.7 kmh 30.06 in1017.9 mb 0.00 in0.0 mm 0.00 in0.0 mm 0.00 in0.0 mm
04:55 AM 44.7°F7.1°C 41.6°F5.3°C 89% 11.0 mph WSW17.7 kmh WSW 11.0 mph17.7 kmh 30.06 in1017.9 mb 0.00 in0.0 mm 0.00 in0.0 mm 0.00 in0.0 mm
04:50 AM 44.7°F7.1°C 41.6°F5.3°C 89% 5.0 mph WSW8.0 kmh WSW 12.0 mph19.3 kmh 30.06 in1017.9 mb 0.00 in0.0 mm 0.00 in0.0 mm 0.00 in0.0 mm
04:45 AM 44.7°F7.1°C 41.6°F5.3°C 89% 5.0 mph WSW8.0 kmh WSW 12.0 mph19.3 kmh 30.06 in1017.9 mb 0.00 in0.0 mm 0.00 in0.0 mm 0.00 in0.0 mm
04:40 AM 44.7°F7.1°C 41.6°F5.3°C 89% 6.0 mph WSW9.7 kmh WSW 8.0 mph12.9 kmh 30.06 in1017.9 mb 0.00 in0.0 mm 0.00 in0.0 mm 0.00 in0.0 mm
04:35 AM 44.7°F7.1°C 41.6°F5.3°C 89% 7.0 mph WSW11.3 kmh WSW 13.0 mph20.9 kmh 30.06 in1017.9 mb 0.00 in0.0 mm 0.00 in0.0 mm 0.00 in0.0 mm
04:30 AM 44.7°F7.1°C 41.6°F5.3°C 89% 9.0 mph SW14.5 kmh SW 13.0 mph20.9 kmh 30.06 in1017.9 mb 0.00 in0.0 mm 0.00 in0.0 mm 0.00 in0.0 mm
04:25 AM 44.7°F7.1°C 41.6°F5.3°C 89% 9.0 mph W14.5 kmh W 11.0 mph17.7 kmh 30.05 in1017.6 mb 0.00 in0.0 mm 0.00 in0.0 mm 0.00 in0.0 mm
04:20 AM 44.7°F7.1°C 41.6°F5.3°C 89% 4.0 mph WSW6.4 kmh WSW 16.0 mph25.7 kmh 30.05 in1017.6 mb 0.00 in0.0 mm 0.00 in0.0 mm 0.00 in0.0 mm
04:15 AM 44.8°F7.1°C 41.7°F5.4°C 89% 9.0 mph WSW14.5 kmh WSW 12.0 mph19.3 kmh 30.05 in1017.6 mb 0.00 in0.0 mm 0.00 in0.0 mm 0.00 in0.0 mm
04:10 AM 44.8°F7.1°C 41.4°F5.2°C 88% 6.0 mph W9.7 kmh W 14.0 mph22.5 kmh 30.05 in1017.6 mb 0.00 in0.0 mm 0.00 in0.0 mm 0.00 in0.0 mm
04:05 AM 44.8°F7.1°C 41.4°F5.2°C 88% 12.0 mph W19.3 kmh W 15.0 mph24.1 kmh 30.05 in1017.6 mb 0.00 in0.0 mm 0.00 in0.0 mm 0.00 in0.0 mm
04:00 AM 44.7°F7.1°C 41.3°F5.2°C 88% 7.0 mph WSW11.3 kmh WSW 17.0 mph27.4 kmh 30.04 in1017.3 mb 0.00 in0.0 mm 0.00 in0.0 mm 0.00 in0.0 mm
03:55 AM 44.8°F7.1°C 41.7°F5.4°C 89% 5.0 mph WSW8.0 kmh WSW 12.0 mph19.3 kmh 30.04 in1017.3 mb 0.00 in0.0 mm 0.00 in0.0 mm 0.00 in0.0 mm
03:50 AM 44.7°F7.1°C 41.3°F5.2°C 88% 7.0 mph WSW11.3 kmh WSW 15.0 mph24.1 kmh 30.04 in1017.3 mb 0.00 in0.0 mm 0.00 in0.0 mm 0.00 in0.0 mm
03:45 AM 44.8°F7.1°C 41.4°F5.2°C 88% 13.0 mph W20.9 kmh W 14.0 mph22.5 kmh 30.04 in1017.3 mb 0.00 in0.0 mm 0.00 in0.0 mm 0.00 in0.0 mm
03:40 AM 44.9°F7.2°C 41.5°F5.3°C 88% 9.0 mph W14.5 kmh W 18.0 mph29.0 kmh 30.03 in1016.9 mb 0.00 in0.0 mm 0.00 in0.0 mm 0.00 in0.0 mm
03:35 AM 44.9°F7.2°C 41.5°F5.3°C 88% 17.0 mph WSW27.4 kmh WSW 17.0 mph27.4 kmh 30.03 in1016.9 mb 0.00 in0.0 mm 0.00 in0.0 mm 0.00 in0.0 mm
03:30 AM 45.0°F7.2°C 41.6°F5.3°C 88% 9.0 mph WSW14.5 kmh WSW 17.0 mph27.4 kmh 30.03 in1016.9 mb 0.00 in0.0 mm 0.00 in0.0 mm 0.00 in0.0 mm
03:25 AM 45.0°F7.2°C 41.6°F5.3°C 88% 10.0 mph WSW16.1 kmh WSW 18.0 mph29.0 kmh 30.03 in1016.9 mb 0.00 in0.0 mm 0.00 in0.0 mm 0.00 in0.0 mm
03:20 AM 45.0°F7.2°C 41.9°F5.5°C 89% 9.0 mph WSW14.5 kmh WSW 15.0 mph24.1 kmh 30.03 in1016.9 mb 0.00 in0.0 mm 0.00 in0.0 mm 0.00 in0.0 mm
03:15 AM 45.0°F7.2°C 41.9°F5.5°C 89% 11.0 mph WSW17.7 kmh WSW 17.0 mph27.4 kmh 30.03 in1016.9 mb 0.00 in0.0 mm 0.00 in0.0 mm 0.00 in0.0 mm
03:10 AM 45.0°F7.2°C 41.9°F5.5°C 89% 12.0 mph WSW19.3 kmh WSW 17.0 mph27.4 kmh 30.03 in1016.9 mb 0.00 in0.0 mm 0.00 in0.0 mm 0.00 in0.0 mm
03:05 AM 45.0°F7.2°C 42.2°F5.7°C 90% 12.0 mph WSW19.3 kmh WSW 16.0 mph25.7 kmh 30.03 in1016.9 mb 0.00 in0.0 mm 0.00 in0.0 mm 0.00 in0.0 mm
03:00 AM 45.0°F7.2°C 41.9°F5.5°C 89% 10.0 mph WSW16.1 kmh WSW 14.0 mph22.5 kmh 30.03 in1016.9 mb 0.00 in0.0 mm 0.00 in0.0 mm 0.00 in0.0 mm
02:55 AM 45.0°F7.2°C 42.2°F5.7°C 90% 8.0 mph WSW12.9 kmh WSW 15.0 mph24.1 kmh 30.03 in1016.9 mb 0.00 in0.0 mm 0.00 in0.0 mm 0.00 in0.0 mm
02:50 AM 44.9°F7.2°C 42.1°F5.6°C 90% 10.0 mph SW16.1 kmh SW 18.0 mph29.0 kmh 30.03 in1016.9 mb 0.00 in0.0 mm 0.00 in0.0 mm 0.00 in0.0 mm
02:45 AM 44.8°F7.1°C 42.3°F5.7°C 91% 12.0 mph W19.3 kmh W 15.0 mph24.1 kmh 30.02 in1016.6 mb 0.00 in0.0 mm 0.00 in0.0 mm 0.00 in0.0 mm
02:40 AM 44.8°F7.1°C 42.0°F5.6°C 90% 13.0 mph W20.9 kmh W 15.0 mph24.1 kmh 30.02 in1016.6 mb 0.00 in0.0 mm 0.00 in0.0 mm 0.00 in0.0 mm
02:35 AM 44.9°F7.2°C 42.1°F5.6°C 90% 10.0 mph WSW16.1 kmh WSW 16.0 mph25.7 kmh 30.02 in1016.6 mb 0.00 in0.0 mm 0.00 in0.0 mm 0.00 in0.0 mm
02:30 AM 45.0°F7.2°C 42.2°F5.7°C 90% 7.0 mph WSW11.3 kmh WSW 17.0 mph27.4 kmh 30.02 in1016.6 mb 0.00 in0.0 mm 0.00 in0.0 mm 0.00 in0.0 mm
02:25 AM 45.2°F7.3°C 42.1°F5.6°C 89% 10.0 mph WNW16.1 kmh WNW 17.0 mph27.4 kmh 30.02 in1016.6 mb 0.00 in0.0 mm 0.00 in0.0 mm 0.00 in0.0 mm
02:20 AM 45.2°F7.3°C 42.1°F5.6°C 89% 4.0 mph SW6.4 kmh SW 16.0 mph25.7 kmh 30.03 in1016.9 mb 0.00 in0.0 mm 0.00 in0.0 mm 0.00 in0.0 mm
02:15 AM 45.2°F7.3°C 41.8°F5.4°C 88% 13.0 mph WSW20.9 kmh WSW 19.0 mph30.6 kmh 30.02 in1016.6 mb 0.00 in0.0 mm 0.00 in0.0 mm 0.00 in0.0 mm
02:10 AM 45.1°F7.3°C 42.0°F5.6°C 89% 6.0 mph WSW9.7 kmh WSW 17.0 mph27.4 kmh 30.02 in1016.6 mb 0.00 in0.0 mm 0.00 in0.0 mm 0.00 in0.0 mm
02:05 AM 45.1°F7.3°C 42.0°F5.6°C 89% 14.0 mph WSW22.5 kmh WSW 15.0 mph24.1 kmh 30.02 in1016.6 mb 0.00 in0.0 mm 0.00 in0.0 mm 0.00 in0.0 mm
02:00 AM 45.1°F7.3°C 42.0°F5.6°C 89% 13.0 mph WSW20.9 kmh WSW 13.0 mph20.9 kmh 30.02 in1016.6 mb 0.00 in0.0 mm 0.00 in0.0 mm 0.00 in0.0 mm
01:55 AM 45.1°F7.3°C 42.0°F5.6°C 89% 7.0 mph SW11.3 kmh SW 15.0 mph24.1 kmh 30.03 in1016.9 mb 0.00 in0.0 mm 0.00 in0.0 mm 0.00 in0.0 mm
01:50 AM 45.1°F7.3°C 42.0°F5.6°C 89% 7.0 mph WSW11.3 kmh WSW 14.0 mph22.5 kmh 30.03 in1016.9 mb 0.00 in0.0 mm 0.00 in0.0 mm 0.00 in0.0 mm
01:45 AM 45.0°F7.2°C 41.9°F5.5°C 89% 4.0 mph WSW6.4 kmh WSW 15.0 mph24.1 kmh 30.02 in1016.6 mb 0.00 in0.0 mm 0.00 in0.0 mm 0.00 in0.0 mm
01:40 AM 45.0°F7.2°C 41.9°F5.5°C 89% 6.0 mph SW9.7 kmh SW 14.0 mph22.5 kmh 30.02 in1016.6 mb 0.00 in0.0 mm 0.00 in0.0 mm 0.00 in0.0 mm
01:35 AM 45.0°F7.2°C 41.9°F5.5°C 89% 6.0 mph WSW9.7 kmh WSW 14.0 mph22.5 kmh 30.02 in1016.6 mb 0.00 in0.0 mm 0.00 in0.0 mm 0.00 in0.0 mm
01:30 AM 44.9°F7.2°C 42.1°F5.6°C 90% 4.0 mph SW6.4 kmh SW 14.0 mph22.5 kmh 30.02 in1016.6 mb 0.00 in0.0 mm 0.00 in0.0 mm 0.00 in0.0 mm
01:25 AM 44.8°F7.1°C 42.0°F5.6°C 90% 7.0 mph WSW11.3 kmh WSW 13.0 mph20.9 kmh 30.02 in1016.6 mb 0.00 in0.0 mm 0.00 in0.0 mm 0.00 in0.0 mm
01:20 AM 44.8°F7.1°C 42.0°F5.6°C 90% 5.0 mph W8.0 kmh W 15.0 mph24.1 kmh 30.02 in1016.6 mb 0.00 in0.0 mm 0.00 in0.0 mm 0.00 in0.0 mm
01:15 AM 44.7°F7.1°C 41.9°F5.5°C 90% 9.0 mph WSW14.5 kmh WSW 12.0 mph19.3 kmh 30.02 in1016.6 mb 0.00 in0.0 mm 0.00 in0.0 mm 0.00 in0.0 mm
01:10 AM 44.6°F7.0°C 41.8°F5.4°C 90% 9.0 mph WSW14.5 kmh WSW 13.0 mph20.9 kmh 30.02 in1016.6 mb 0.00 in0.0 mm 0.00 in0.0 mm 0.00 in0.0 mm
01:05 AM 44.6°F7.0°C 42.1°F5.6°C 91% 6.0 mph WSW9.7 kmh WSW 14.0 mph22.5 kmh 30.02 in1016.6 mb 0.00 in0.0 mm 0.00 in0.0 mm 0.00 in0.0 mm
01:00 AM 44.4°F6.9°C 41.9°F5.5°C 91% 5.0 mph WSW8.0 kmh WSW 12.0 mph19.3 kmh 30.02 in1016.6 mb 0.00 in0.0 mm 0.00 in0.0 mm 0.00 in0.0 mm
12:55 AM 44.5°F6.9°C 41.7°F5.4°C 90% 7.0 mph WSW11.3 kmh WSW 13.0 mph20.9 kmh 30.02 in1016.6 mb 0.00 in0.0 mm 0.00 in0.0 mm 0.00 in0.0 mm
12:50 AM 44.5°F6.9°C 42.0°F5.6°C 91% 6.0 mph WSW9.7 kmh WSW 15.0 mph24.1 kmh 30.02 in1016.6 mb 0.00 in0.0 mm 0.00 in0.0 mm 0.00 in0.0 mm
12:45 AM 44.6°F7.0°C 41.8°F5.4°C 90% 9.0 mph SW14.5 kmh SW 15.0 mph24.1 kmh 30.02 in1016.6 mb 0.00 in0.0 mm 0.00 in0.0 mm 0.00 in0.0 mm
12:40 AM 44.7°F7.1°C 41.9°F5.5°C 90% 12.0 mph WSW19.3 kmh WSW 14.0 mph22.5 kmh 30.01 in1016.3 mb 0.00 in0.0 mm 0.00 in0.0 mm 0.00 in0.0 mm
12:35 AM 44.7°F7.1°C 42.2°F5.7°C 91% 12.0 mph WSW19.3 kmh WSW 14.0 mph22.5 kmh 30.02 in1016.6 mb 0.00 in0.0 mm 0.00 in0.0 mm 0.00 in0.0 mm
12:30 AM 44.8°F7.1°C 42.3°F5.7°C 91% 3.0 mph W4.8 kmh W 13.0 mph20.9 kmh 30.02 in1016.6 mb 0.00 in0.0 mm 0.00 in0.0 mm 0.00 in0.0 mm
12:25 AM 44.9°F7.2°C 42.4°F5.8°C 91% 5.0 mph WNW8.0 kmh WNW 11.0 mph17.7 kmh 30.02 in1016.6 mb 0.00 in0.0 mm 0.00 in0.0 mm 0.00 in0.0 mm
12:20 AM 45.0°F7.2°C 42.5°F5.8°C 91% 10.0 mph WSW16.1 kmh WSW 13.0 mph20.9 kmh 30.02 in1016.6 mb 0.00 in0.0 mm 0.00 in0.0 mm 0.00 in0.0 mm
12:15 AM 45.0°F7.2°C 42.5°F5.8°C 91% 9.0 mph SW14.5 kmh SW 12.0 mph19.3 kmh 30.02 in1016.6 mb 0.00 in0.0 mm 0.00 in0.0 mm 0.00 in0.0 mm
12:10 AM 45.0°F7.2°C 42.5°F5.8°C 91% 6.0 mph WSW9.7 kmh WSW 14.0 mph22.5 kmh 30.02 in1016.6 mb 0.00 in0.0 mm 0.00 in0.0 mm 0.00 in0.0 mm
12:05 AM 45.0°F7.2°C 42.5°F5.8°C 91% 9.0 mph WSW14.5 kmh WSW 15.0 mph24.1 kmh 30.02 in1016.6 mb 0.00 in0.0 mm 0.00 in0.0 mm 0.00 in0.0 mm
12:00 AM 45.0°F7.2°C 42.5°F5.8°C 91% 5.0 mph SW8.0 kmh SW 15.0 mph24.1 kmh 30.03 in1016.9 mb 0.00 in0.0 mm 0.00 in0.0 mm 0.00 in0.0 mm